sensor_id;sensor_type;location;lat;lon;timestamp;pressure;altitude;pressure_sealevel;temperature
19040;BMP180;9652;49.014;12.052;2023-02-07T00:01:15;99870.00;;;0.20
19040;BMP180;9652;49.014;12.052;2023-02-07T00:03:43;99874.00;;;0.20
19040;BMP180;9652;49.014;12.052;2023-02-07T00:06:13;99870.00;;;0.20
19040;BMP180;9652;49.014;12.052;2023-02-07T00:08:41;99845.00;;;0.20
19040;BMP180;9652;49.014;12.052;2023-02-07T00:11:11;99848.00;;;0.20
19040;BMP180;9652;49.014;12.052;2023-02-07T00:13:41;99836.00;;;0.20
19040;BMP180;9652;49.014;12.052;2023-02-07T00:16:10;99848.00;;;0.20
19040;BMP180;9652;49.014;12.052;2023-02-07T00:18:39;99844.00;;;0.20
19040;BMP180;9652;49.014;12.052;2023-02-07T00:21:09;99846.00;;;0.10
19040;BMP180;9652;49.014;12.052;2023-02-07T00:23:38;99828.00;;;0.10
19040;BMP180;9652;49.014;12.052;2023-02-07T00:26:07;99847.00;;;0.10
19040;BMP180;9652;49.014;12.052;2023-02-07T00:28:35;99854.00;;;0.10
19040;BMP180;9652;49.014;12.052;2023-02-07T00:31:04;99863.00;;;0.10
19040;BMP180;9652;49.014;12.052;2023-02-07T00:33:34;99869.00;;;0.10
19040;BMP180;9652;49.014;12.052;2023-02-07T00:36:12;99868.00;;;0.10
19040;BMP180;9652;49.014;12.052;2023-02-07T00:38:40;99863.00;;;0.10
19040;BMP180;9652;49.014;12.052;2023-02-07T00:41:08;99860.00;;;0.00
19040;BMP180;9652;49.014;12.052;2023-02-07T00:43:35;99850.00;;;0.00
19040;BMP180;9652;49.014;12.052;2023-02-07T00:46:03;99870.00;;;0.10
19040;BMP180;9652;49.014;12.052;2023-02-07T00:48:33;99874.00;;;0.10
19040;BMP180;9652;49.014;12.052;2023-02-07T00:51:00;99856.00;;;0.10
19040;BMP180;9652;49.014;12.052;2023-02-07T00:53:28;99820.00;;;0.10
19040;BMP180;9652;49.014;12.052;2023-02-07T00:55:56;99841.00;;;0.10
19040;BMP180;9652;49.014;12.052;2023-02-07T00:58:23;99849.00;;;0.10
19040;BMP180;9652;49.014;12.052;2023-02-07T01:00:51;99834.00;;;0.10
19040;BMP180;9652;49.014;12.052;2023-02-07T01:03:18;99820.00;;;0.10
19040;BMP180;9652;49.014;12.052;2023-02-07T01:05:47;99838.00;;;0.10
19040;BMP180;9652;49.014;12.052;2023-02-07T01:08:14;99849.00;;;0.10
19040;BMP180;9652;49.014;12.052;2023-02-07T01:10:44;99855.00;;;0.00
19040;BMP180;9652;49.014;12.052;2023-02-07T01:13:13;99852.00;;;0.00
19040;BMP180;9652;49.014;12.052;2023-02-07T01:15:46;99861.00;;;0.00
19040;BMP180;9652;49.014;12.052;2023-02-07T01:18:15;99832.00;;;0.00
19040;BMP180;9652;49.014;12.052;2023-02-07T01:20:42;99837.00;;;0.00
19040;BMP180;9652;49.014;12.052;2023-02-07T01:23:12;99850.00;;;0.00
19040;BMP180;9652;49.014;12.052;2023-02-07T01:25:40;99834.00;;;-0.10
19040;BMP180;9652;49.014;12.052;2023-02-07T01:28:09;99831.00;;;-0.10
19040;BMP180;9652;49.014;12.052;2023-02-07T01:30:39;99846.00;;;-0.10
19040;BMP180;9652;49.014;12.052;2023-02-07T01:33:07;99856.00;;;-0.10
19040;BMP180;9652;49.014;12.052;2023-02-07T01:35:36;99843.00;;;-0.10
19040;BMP180;9652;49.014;12.052;2023-02-07T01:38:03;99878.00;;;-0.10
19040;BMP180;9652;49.014;12.052;2023-02-07T01:40:35;99871.00;;;-0.20
19040;BMP180;9652;49.014;12.052;2023-02-07T01:43:04;99871.00;;;-0.20
19040;BMP180;9652;49.014;12.052;2023-02-07T01:45:36;99872.00;;;-0.20
19040;BMP180;9652;49.014;12.052;2023-02-07T01:48:09;99868.00;;;-0.20
19040;BMP180;9652;49.014;12.052;2023-02-07T01:50:41;99862.00;;;-0.20
19040;BMP180;9652;49.014;12.052;2023-02-07T01:53:13;99844.00;;;-0.20
19040;BMP180;9652;49.014;12.052;2023-02-07T01:55:44;99859.00;;;-0.20
19040;BMP180;9652;49.014;12.052;2023-02-07T01:58:13;99847.00;;;-0.30
19040;BMP180;9652;49.014;12.052;2023-02-07T02:00:40;99852.00;;;-0.30
19040;BMP180;9652;49.014;12.052;2023-02-07T02:03:07;99849.00;;;-0.30
19040;BMP180;9652;49.014;12.052;2023-02-07T02:05:38;99855.00;;;-0.30
19040;BMP180;9652;49.014;12.052;2023-02-07T02:08:05;99854.00;;;-0.30
19040;BMP180;9652;49.014;12.052;2023-02-07T02:11:01;99854.00;;;-0.30
19040;BMP180;9652;49.014;12.052;2023-02-07T02:13:38;99875.00;;;-0.30
19040;BMP180;9652;49.014;12.052;2023-02-07T02:16:19;99866.00;;;-0.40
19040;BMP180;9652;49.014;12.052;2023-02-07T02:19:13;99865.00;;;-0.40
19040;BMP180;9652;49.014;12.052;2023-02-07T02:25:22;99869.00;;;-0.50
19040;BMP180;9652;49.014;12.052;2023-02-07T02:28:40;99851.00;;;-0.50
19040;BMP180;9652;49.014;12.052;2023-02-07T02:31:40;99833.00;;;-0.50
19040;BMP180;9652;49.014;12.052;2023-02-07T02:34:20;99859.00;;;-0.60
19040;BMP180;9652;49.014;12.052;2023-02-07T02:36:57;99837.00;;;-0.60
19040;BMP180;9652;49.014;12.052;2023-02-07T02:39:33;99827.00;;;-0.60
19040;BMP180;9652;49.014;12.052;2023-02-07T02:42:10;99828.00;;;-0.60
19040;BMP180;9652;49.014;12.052;2023-02-07T02:44:47;99844.00;;;-0.60
19040;BMP180;9652;49.014;12.052;2023-02-07T02:47:19;99831.00;;;-0.60
19040;BMP180;9652;49.014;12.052;2023-02-07T02:49:48;99795.00;;;-0.60
19040;BMP180;9652;49.014;12.052;2023-02-07T02:52:17;99829.00;;;-0.60
19040;BMP180;9652;49.014;12.052;2023-02-07T02:54:44;99840.00;;;-0.60
19040;BMP180;9652;49.014;12.052;2023-02-07T02:57:47;99837.00;;;-0.70
19040;BMP180;9652;49.014;12.052;2023-02-07T03:00:53;99835.00;;;-0.70
19040;BMP180;9652;49.014;12.052;2023-02-07T03:03:49;99830.00;;;-1.10
19040;BMP180;9652;49.014;12.052;2023-02-07T03:06:47;99838.00;;;-0.80
19040;BMP180;9652;49.014;12.052;2023-02-07T03:09:32;99839.00;;;-0.90
19040;BMP180;9652;49.014;12.052;2023-02-07T03:12:12;99841.00;;;-1.10
19040;BMP180;9652;49.014;12.052;2023-02-07T03:14:53;99841.00;;;-0.90
19040;BMP180;9652;49.014;12.052;2023-02-07T03:17:27;99830.00;;;-1.00
19040;BMP180;9652;49.014;12.052;2023-02-07T03:20:04;99809.00;;;-0.90
19040;BMP180;9652;49.014;12.052;2023-02-07T03:22:34;99835.00;;;-0.90
19040;BMP180;9652;49.014;12.052;2023-02-07T03:25:05;99813.00;;;-0.90
19040;BMP180;9652;49.014;12.052;2023-02-07T03:27:36;99834.00;;;-1.00
19040;BMP180;9652;49.014;12.052;2023-02-07T03:30:09;99813.00;;;-1.00
19040;BMP180;9652;49.014;12.052;2023-02-07T03:32:44;99779.00;;;-1.00
19040;BMP180;9652;49.014;12.052;2023-02-07T03:35:19;99809.00;;;-1.10
19040;BMP180;9652;49.014;12.052;2023-02-07T03:37:53;99841.00;;;-1.10
19040;BMP180;9652;49.014;12.052;2023-02-07T03:40:26;99839.00;;;-1.10
19040;BMP180;9652;49.014;12.052;2023-02-07T03:43:01;99818.00;;;-1.10
19040;BMP180;9652;49.014;12.052;2023-02-07T03:45:30;99765.00;;;-1.10
19040;BMP180;9652;49.014;12.052;2023-02-07T03:47:57;99819.00;;;-1.20
19040;BMP180;9652;49.014;12.052;2023-02-07T03:50:24;99824.00;;;-1.20
19040;BMP180;9652;49.014;12.052;2023-02-07T03:52:52;99818.00;;;-1.20
19040;BMP180;9652;49.014;12.052;2023-02-07T03:55:19;99810.00;;;-1.30
19040;BMP180;9652;49.014;12.052;2023-02-07T03:57:46;99822.00;;;-1.30
19040;BMP180;9652;49.014;12.052;2023-02-07T04:00:14;99812.00;;;-1.30
19040;BMP180;9652;49.014;12.052;2023-02-07T04:02:42;99824.00;;;-1.40
19040;BMP180;9652;49.014;12.052;2023-02-07T04:05:09;99771.00;;;-1.40
19040;BMP180;9652;49.014;12.052;2023-02-07T04:07:36;99818.00;;;-1.40
19040;BMP180;9652;49.014;12.052;2023-02-07T04:10:06;99817.00;;;-1.40
19040;BMP180;9652;49.014;12.052;2023-02-07T04:12:33;99823.00;;;-1.40
19040;BMP180;9652;49.014;12.052;2023-02-07T04:15:01;99840.00;;;-1.50
19040;BMP180;9652;49.014;12.052;2023-02-07T04:17:28;99821.00;;;-1.50
19040;BMP180;9652;49.014;12.052;2023-02-07T04:19:55;99824.00;;;-1.50
19040;BMP180;9652;49.014;12.052;2023-02-07T04:22:22;99836.00;;;-1.50
19040;BMP180;9652;49.014;12.052;2023-02-07T04:24:49;99841.00;;;-1.50
19040;BMP180;9652;49.014;12.052;2023-02-07T04:27:17;99845.00;;;-1.60
19040;BMP180;9652;49.014;12.052;2023-02-07T04:29:44;99827.00;;;-1.60
19040;BMP180;9652;49.014;12.052;2023-02-07T04:32:12;99844.00;;;-1.60
19040;BMP180;9652;49.014;12.052;2023-02-07T04:34:39;99842.00;;;-1.60
19040;BMP180;9652;49.014;12.052;2023-02-07T04:37:06;99856.00;;;-1.70
19040;BMP180;9652;49.014;12.052;2023-02-07T04:39:33;99850.00;;;-1.70
19040;BMP180;9652;49.014;12.052;2023-02-07T04:42:00;99850.00;;;-1.70
19040;BMP180;9652;49.014;12.052;2023-02-07T04:44:29;99842.00;;;-1.70
19040;BMP180;9652;49.014;12.052;2023-02-07T04:46:56;99860.00;;;-1.70
19040;BMP180;9652;49.014;12.052;2023-02-07T04:49:23;99865.00;;;-1.60
19040;BMP180;9652;49.014;12.052;2023-02-07T04:51:51;99863.00;;;-1.70
19040;BMP180;9652;49.014;12.052;2023-02-07T04:54:19;99859.00;;;-1.70
19040;BMP180;9652;49.014;12.052;2023-02-07T04:56:46;99848.00;;;-1.70
19040;BMP180;9652;49.014;12.052;2023-02-07T04:59:13;99842.00;;;-1.70
19040;BMP180;9652;49.014;12.052;2023-02-07T05:01:41;99857.00;;;-1.80
19040;BMP180;9652;49.014;12.052;2023-02-07T05:04:08;99855.00;;;-1.80
19040;BMP180;9652;49.014;12.052;2023-02-07T05:06:35;99843.00;;;-1.80
19040;BMP180;9652;49.014;12.052;2023-02-07T05:09:02;99858.00;;;-1.80
19040;BMP180;9652;49.014;12.052;2023-02-07T05:11:29;99846.00;;;-1.90
19040;BMP180;9652;49.014;12.052;2023-02-07T05:13:57;99834.00;;;-1.80
19040;BMP180;9652;49.014;12.052;2023-02-07T05:16:24;99842.00;;;-1.80
19040;BMP180;9652;49.014;12.052;2023-02-07T05:18:52;99829.00;;;-1.90
19040;BMP180;9652;49.014;12.052;2023-02-07T05:21:19;99834.00;;;-1.80
19040;BMP180;9652;49.014;12.052;2023-02-07T05:23:46;99839.00;;;-1.90
19040;BMP180;9652;49.014;12.052;2023-02-07T05:26:13;99837.00;;;-1.80
19040;BMP180;9652;49.014;12.052;2023-02-07T05:28:42;99853.00;;;-1.90
19040;BMP180;9652;49.014;12.052;2023-02-07T05:31:09;99861.00;;;-1.90
19040;BMP180;9652;49.014;12.052;2023-02-07T05:33:36;99862.00;;;-2.20
19040;BMP180;9652;49.014;12.052;2023-02-07T05:36:04;99855.00;;;-1.90
19040;BMP180;9652;49.014;12.052;2023-02-07T05:38:31;99861.00;;;-2.00
19040;BMP180;9652;49.014;12.052;2023-02-07T05:40:58;99868.00;;;-2.00
19040;BMP180;9652;49.014;12.052;2023-02-07T05:43:26;99857.00;;;-2.00
19040;BMP180;9652;49.014;12.052;2023-02-07T05:45:53;99859.00;;;-2.00
19040;BMP180;9652;49.014;12.052;2023-02-07T05:48:20;99861.00;;;-2.10
19040;BMP180;9652;49.014;12.052;2023-02-07T05:50:47;99873.00;;;-2.10
19040;BMP180;9652;49.014;12.052;2023-02-07T05:53:15;99853.00;;;-2.10
19040;BMP180;9652;49.014;12.052;2023-02-07T05:55:42;99875.00;;;-2.20
19040;BMP180;9652;49.014;12.052;2023-02-07T05:58:09;99863.00;;;-2.20
19040;BMP180;9652;49.014;12.052;2023-02-07T06:00:36;99875.00;;;-2.20
19040;BMP180;9652;49.014;12.052;2023-02-07T06:03:03;99872.00;;;-2.20
19040;BMP180;9652;49.014;12.052;2023-02-07T06:05:30;99887.00;;;-2.20
19040;BMP180;9652;49.014;12.052;2023-02-07T06:07:58;99884.00;;;-2.20
19040;BMP180;9652;49.014;12.052;2023-02-07T06:10:27;99876.00;;;-2.30
19040;BMP180;9652;49.014;12.052;2023-02-07T06:12:54;99893.00;;;-2.30
19040;BMP180;9652;49.014;12.052;2023-02-07T06:15:21;99911.00;;;-2.30
19040;BMP180;9652;49.014;12.052;2023-02-07T06:17:48;99914.00;;;-2.30
19040;BMP180;9652;49.014;12.052;2023-02-07T06:20:16;99902.00;;;-2.30
19040;BMP180;9652;49.014;12.052;2023-02-07T06:22:43;99916.00;;;-2.30
19040;BMP180;9652;49.014;12.052;2023-02-07T06:25:10;99886.00;;;-2.30
19040;BMP180;9652;49.014;12.052;2023-02-07T06:27:40;99925.00;;;-2.40
19040;BMP180;9652;49.014;12.052;2023-02-07T06:30:10;99918.00;;;-2.40
19040;BMP180;9652;49.014;12.052;2023-02-07T06:32:37;99913.00;;;-2.40
19040;BMP180;9652;49.014;12.052;2023-02-07T06:35:06;99901.00;;;-2.40
19040;BMP180;9652;49.014;12.052;2023-02-07T06:37:33;99908.00;;;-2.40
19040;BMP180;9652;49.014;12.052;2023-02-07T06:40:01;99907.00;;;-2.40
19040;BMP180;9652;49.014;12.052;2023-02-07T06:42:28;99909.00;;;-2.50
19040;BMP180;9652;49.014;12.052;2023-02-07T06:44:56;99917.00;;;-2.50
19040;BMP180;9652;49.014;12.052;2023-02-07T06:47:24;99923.00;;;-2.40
19040;BMP180;9652;49.014;12.052;2023-02-07T06:49:51;99921.00;;;-2.50
19040;BMP180;9652;49.014;12.052;2023-02-07T06:52:18;99926.00;;;-2.50
19040;BMP180;9652;49.014;12.052;2023-02-07T06:54:45;99919.00;;;-2.40
19040;BMP180;9652;49.014;12.052;2023-02-07T06:57:12;99926.00;;;-2.40
19040;BMP180;9652;49.014;12.052;2023-02-07T06:59:39;99920.00;;;-2.40
19040;BMP180;9652;49.014;12.052;2023-02-07T07:02:09;99926.00;;;-2.40
19040;BMP180;9652;49.014;12.052;2023-02-07T07:04:37;99937.00;;;-2.40
19040;BMP180;9652;49.014;12.052;2023-02-07T07:07:05;99935.00;;;-2.40
19040;BMP180;9652;49.014;12.052;2023-02-07T07:09:32;99942.00;;;-2.40
19040;BMP180;9652;49.014;12.052;2023-02-07T07:11:59;99933.00;;;-2.40
19040;BMP180;9652;49.014;12.052;2023-02-07T07:14:26;99957.00;;;-2.30
19040;BMP180;9652;49.014;12.052;2023-02-07T07:16:53;99951.00;;;-2.30
19040;BMP180;9652;49.014;12.052;2023-02-07T07:19:22;99938.00;;;-2.30
19040;BMP180;9652;49.014;12.052;2023-02-07T07:21:49;99962.00;;;-2.30
19040;BMP180;9652;49.014;12.052;2023-02-07T07:24:16;99968.00;;;-2.30
19040;BMP180;9652;49.014;12.052;2023-02-07T07:26:44;99959.00;;;-2.20
19040;BMP180;9652;49.014;12.052;2023-02-07T07:29:11;99970.00;;;-2.20
19040;BMP180;9652;49.014;12.052;2023-02-07T07:31:38;99930.00;;;-2.20
19040;BMP180;9652;49.014;12.052;2023-02-07T07:34:05;99969.00;;;-2.20
19040;BMP180;9652;49.014;12.052;2023-02-07T07:36:33;99957.00;;;-2.10
19040;BMP180;9652;49.014;12.052;2023-02-07T07:39:00;99962.00;;;-2.10
19040;BMP180;9652;49.014;12.052;2023-02-07T07:41:27;99968.00;;;-2.00
19040;BMP180;9652;49.014;12.052;2023-02-07T07:43:54;99968.00;;;-2.00
19040;BMP180;9652;49.014;12.052;2023-02-07T07:46:21;99959.00;;;-2.00
19040;BMP180;9652;49.014;12.052;2023-02-07T07:48:48;99960.00;;;-2.00
19040;BMP180;9652;49.014;12.052;2023-02-07T07:51:15;99968.00;;;-1.90
19040;BMP180;9652;49.014;12.052;2023-02-07T07:53:44;99952.00;;;-1.90
19040;BMP180;9652;49.014;12.052;2023-02-07T07:56:11;99964.00;;;-1.80
19040;BMP180;9652;49.014;12.052;2023-02-07T07:58:38;99953.00;;;-1.70
19040;BMP180;9652;49.014;12.052;2023-02-07T08:01:05;99965.00;;;-2.00
19040;BMP180;9652;49.014;12.052;2023-02-07T08:03:32;99953.00;;;-1.90
19040;BMP180;9652;49.014;12.052;2023-02-07T08:05:59;99964.00;;;-1.50
19040;BMP180;9652;49.014;12.052;2023-02-07T08:08:26;99970.00;;;-1.40
19040;BMP180;9652;49.014;12.052;2023-02-07T08:10:59;99946.00;;;-1.40
19040;BMP180;9652;49.014;12.052;2023-02-07T08:13:27;99937.00;;;-1.30
19040;BMP180;9652;49.014;12.052;2023-02-07T08:15:54;99945.00;;;-1.20
19040;BMP180;9652;49.014;12.052;2023-02-07T08:18:21;99938.00;;;-1.10
19040;BMP180;9652;49.014;12.052;2023-02-07T08:20:48;99920.00;;;-1.10
19040;BMP180;9652;49.014;12.052;2023-02-07T08:23:16;99936.00;;;-1.00
19040;BMP180;9652;49.014;12.052;2023-02-07T08:25:43;99915.00;;;-0.90
19040;BMP180;9652;49.014;12.052;2023-02-07T08:28:13;99948.00;;;-0.80
19040;BMP180;9652;49.014;12.052;2023-02-07T08:30:40;99945.00;;;-0.70
19040;BMP180;9652;49.014;12.052;2023-02-07T08:33:07;99937.00;;;-0.70
19040;BMP180;9652;49.014;12.052;2023-02-07T08:35:35;99934.00;;;-0.60
19040;BMP180;9652;49.014;12.052;2023-02-07T08:38:02;99940.00;;;-0.50
19040;BMP180;9652;49.014;12.052;2023-02-07T08:40:29;99941.00;;;-0.40
19040;BMP180;9652;49.014;12.052;2023-02-07T08:42:57;99938.00;;;-0.40
19040;BMP180;9652;49.014;12.052;2023-02-07T08:45:26;99933.00;;;-0.30
19040;BMP180;9652;49.014;12.052;2023-02-07T08:47:53;99923.00;;;-0.20
19040;BMP180;9652;49.014;12.052;2023-02-07T08:50:21;99920.00;;;-0.10
19040;BMP180;9652;49.014;12.052;2023-02-07T08:52:48;99930.00;;;-0.10
19040;BMP180;9652;49.014;12.052;2023-02-07T08:55:15;99926.00;;;0.00
19040;BMP180;9652;49.014;12.052;2023-02-07T08:57:42;99922.00;;;0.10
19040;BMP180;9652;49.014;12.052;2023-02-07T09:00:11;99924.00;;;0.20
19040;BMP180;9652;49.014;12.052;2023-02-07T09:02:39;99933.00;;;0.30
19040;BMP180;9652;49.014;12.052;2023-02-07T09:05:08;99936.00;;;0.30
19040;BMP180;9652;49.014;12.052;2023-02-07T09:07:36;99920.00;;;0.40
19040;BMP180;9652;49.014;12.052;2023-02-07T09:10:03;99918.00;;;0.50
19040;BMP180;9652;49.014;12.052;2023-02-07T09:12:32;99925.00;;;0.60
19040;BMP180;9652;49.014;12.052;2023-02-07T09:14:59;99922.00;;;0.60
19040;BMP180;9652;49.014;12.052;2023-02-07T09:17:26;99920.00;;;0.70
19040;BMP180;9652;49.014;12.052;2023-02-07T09:19:54;99915.00;;;0.80
19040;BMP180;9652;49.014;12.052;2023-02-07T09:22:21;99922.00;;;0.90
19040;BMP180;9652;49.014;12.052;2023-02-07T09:24:48;99935.00;;;1.00
19040;BMP180;9652;49.014;12.052;2023-02-07T09:27:15;99927.00;;;1.10
19040;BMP180;9652;49.014;12.052;2023-02-07T09:29:42;99937.00;;;1.10
19040;BMP180;9652;49.014;12.052;2023-02-07T09:32:09;99908.00;;;1.20
19040;BMP180;9652;49.014;12.052;2023-02-07T09:34:36;99914.00;;;1.30
19040;BMP180;9652;49.014;12.052;2023-02-07T09:37:05;99910.00;;;1.40
19040;BMP180;9652;49.014;12.052;2023-02-07T09:39:35;99910.00;;;1.50
19040;BMP180;9652;49.014;12.052;2023-02-07T09:42:17;99918.00;;;1.50
19040;BMP180;9652;49.014;12.052;2023-02-07T09:44:56;99910.00;;;1.60
19040;BMP180;9652;49.014;12.052;2023-02-07T09:47:25;99897.00;;;1.70
19040;BMP180;9652;49.014;12.052;2023-02-07T09:49:58;99886.00;;;1.80
19040;BMP180;9652;49.014;12.052;2023-02-07T09:52:33;99898.00;;;1.80
19040;BMP180;9652;49.014;12.052;2023-02-07T09:55:03;99888.00;;;1.90
19040;BMP180;9652;49.014;12.052;2023-02-07T09:57:35;99888.00;;;2.00
19040;BMP180;9652;49.014;12.052;2023-02-07T10:00:22;99912.00;;;2.10
19040;BMP180;9652;49.014;12.052;2023-02-07T10:02:56;99896.00;;;2.10
19040;BMP180;9652;49.014;12.052;2023-02-07T10:05:30;99903.00;;;2.20
19040;BMP180;9652;49.014;12.052;2023-02-07T10:08:00;99901.00;;;2.30
19040;BMP180;9652;49.014;12.052;2023-02-07T10:10:38;99917.00;;;2.40
19040;BMP180;9652;49.014;12.052;2023-02-07T10:13:35;99914.00;;;2.50
19040;BMP180;9652;49.014;12.052;2023-02-07T10:16:45;99909.00;;;2.50
19040;BMP180;9652;49.014;12.052;2023-02-07T10:19:27;99914.00;;;2.60
19040;BMP180;9652;49.014;12.052;2023-02-07T10:22:10;99901.00;;;2.60
19040;BMP180;9652;49.014;12.052;2023-02-07T10:25:02;99912.00;;;2.70
19040;BMP180;9652;49.014;12.052;2023-02-07T10:27:40;99897.00;;;2.70
19040;BMP180;9652;49.014;12.052;2023-02-07T10:30:15;99902.00;;;2.80
19040;BMP180;9652;49.014;12.052;2023-02-07T10:32:44;99893.00;;;2.80
19040;BMP180;9652;49.014;12.052;2023-02-07T10:35:18;99888.00;;;2.90
19040;BMP180;9652;49.014;12.052;2023-02-07T10:37:50;99887.00;;;2.90
19040;BMP180;9652;49.014;12.052;2023-02-07T10:40:25;99885.00;;;3.00
19040;BMP180;9652;49.014;12.052;2023-02-07T10:43:01;99871.00;;;3.00
19040;BMP180;9652;49.014;12.052;2023-02-07T10:45:29;99871.00;;;3.10
19040;BMP180;9652;49.014;12.052;2023-02-07T10:47:56;99883.00;;;3.10
19040;BMP180;9652;49.014;12.052;2023-02-07T10:50:25;99872.00;;;3.00
19040;BMP180;9652;49.014;12.052;2023-02-07T10:52:55;99878.00;;;3.30
19040;BMP180;9652;49.014;12.052;2023-02-07T10:55:39;99870.00;;;3.30
19040;BMP180;9652;49.014;12.052;2023-02-07T10:58:14;99875.00;;;3.40
19040;BMP180;9652;49.014;12.052;2023-02-07T11:00:47;99857.00;;;3.50
19040;BMP180;9652;49.014;12.052;2023-02-07T11:03:17;99865.00;;;3.60
19040;BMP180;9652;49.014;12.052;2023-02-07T11:05:55;99844.00;;;3.60
19040;BMP180;9652;49.014;12.052;2023-02-07T11:08:26;99877.00;;;3.60
19040;BMP180;9652;49.014;12.052;2023-02-07T11:10:56;99877.00;;;3.70
19040;BMP180;9652;49.014;12.052;2023-02-07T11:13:26;99847.00;;;3.80
19040;BMP180;9652;49.014;12.052;2023-02-07T11:15:58;99874.00;;;3.80
19040;BMP180;9652;49.014;12.052;2023-02-07T11:18:40;99873.00;;;3.90
19040;BMP180;9652;49.014;12.052;2023-02-07T11:21:23;99887.00;;;3.90
19040;BMP180;9652;49.014;12.052;2023-02-07T11:23:53;99880.00;;;4.00
19040;BMP180;9652;49.014;12.052;2023-02-07T11:26:22;99863.00;;;4.10
19040;BMP180;9652;49.014;12.052;2023-02-07T11:29:02;99874.00;;;4.10
19040;BMP180;9652;49.014;12.052;2023-02-07T11:31:33;99854.00;;;4.10
19040;BMP180;9652;49.014;12.052;2023-02-07T11:34:41;99870.00;;;4.20
19040;BMP180;9652;49.014;12.052;2023-02-07T11:37:25;99853.00;;;4.20
19040;BMP180;9652;49.014;12.052;2023-02-07T11:39:56;99859.00;;;4.30
19040;BMP180;9652;49.014;12.052;2023-02-07T11:42:42;99848.00;;;4.20
19040;BMP180;9652;49.014;12.052;2023-02-07T11:45:14;99854.00;;;4.40
19040;BMP180;9652;49.014;12.052;2023-02-07T11:47:44;99831.00;;;4.50
19040;BMP180;9652;49.014;12.052;2023-02-07T11:50:20;99847.00;;;4.50
19040;BMP180;9652;49.014;12.052;2023-02-07T11:52:52;99838.00;;;4.50
19040;BMP180;9652;49.014;12.052;2023-02-07T11:55:25;99838.00;;;4.60
19040;BMP180;9652;49.014;12.052;2023-02-07T11:57:56;99819.00;;;4.60
19040;BMP180;9652;49.014;12.052;2023-02-07T12:00:26;99819.00;;;4.70
19040;BMP180;9652;49.014;12.052;2023-02-07T12:03:03;99822.00;;;4.70
19040;BMP180;9652;49.014;12.052;2023-02-07T12:05:36;99823.00;;;4.80
19040;BMP180;9652;49.014;12.052;2023-02-07T12:08:10;99818.00;;;4.80
19040;BMP180;9652;49.014;12.052;2023-02-07T12:10:43;99824.00;;;4.90
19040;BMP180;9652;49.014;12.052;2023-02-07T12:13:15;99825.00;;;4.90
19040;BMP180;9652;49.014;12.052;2023-02-07T12:15:50;99800.00;;;4.90
19040;BMP180;9652;49.014;12.052;2023-02-07T12:18:27;99824.00;;;4.90
19040;BMP180;9652;49.014;12.052;2023-02-07T12:21:03;99825.00;;;4.90
19040;BMP180;9652;49.014;12.052;2023-02-07T12:23:41;99823.00;;;5.00
19040;BMP180;9652;49.014;12.052;2023-02-07T12:26:20;99821.00;;;5.00
19040;BMP180;9652;49.014;12.052;2023-02-07T12:29:06;99798.00;;;5.10
19040;BMP180;9652;49.014;12.052;2023-02-07T12:31:45;99809.00;;;5.10
19040;BMP180;9652;49.014;12.052;2023-02-07T12:34:21;99812.00;;;5.20
19040;BMP180;9652;49.014;12.052;2023-02-07T12:36:58;99818.00;;;5.20
19040;BMP180;9652;49.014;12.052;2023-02-07T12:39:33;99817.00;;;5.20
19040;BMP180;9652;49.014;12.052;2023-02-07T12:42:25;99813.00;;;5.30
19040;BMP180;9652;49.014;12.052;2023-02-07T12:45:00;99819.00;;;5.30
19040;BMP180;9652;49.014;12.052;2023-02-07T12:47:42;99821.00;;;5.40
19040;BMP180;9652;49.014;12.052;2023-02-07T12:50:31;99823.00;;;5.40
19040;BMP180;9652;49.014;12.052;2023-02-07T12:53:21;99766.00;;;5.40
19040;BMP180;9652;49.014;12.052;2023-02-07T12:56:06;99798.00;;;5.50
19040;BMP180;9652;49.014;12.052;2023-02-07T12:58:48;99810.00;;;5.50
19040;BMP180;9652;49.014;12.052;2023-02-07T13:01:29;99768.00;;;5.50
19040;BMP180;9652;49.014;12.052;2023-02-07T13:04:32;99823.00;;;5.50
19040;BMP180;9652;49.014;12.052;2023-02-07T13:07:20;99781.00;;;5.50
19040;BMP180;9652;49.014;12.052;2023-02-07T13:10:00;99784.00;;;5.50
19040;BMP180;9652;49.014;12.052;2023-02-07T13:12:37;99789.00;;;5.60
19040;BMP180;9652;49.014;12.052;2023-02-07T13:15:17;99797.00;;;5.60
19040;BMP180;9652;49.014;12.052;2023-02-07T13:17:58;99793.00;;;5.60
19040;BMP180;9652;49.014;12.052;2023-02-07T13:20:42;99780.00;;;5.60
19040;BMP180;9652;49.014;12.052;2023-02-07T13:23:17;99782.00;;;5.60
19040;BMP180;9652;49.014;12.052;2023-02-07T13:25:48;99783.00;;;5.60
19040;BMP180;9652;49.014;12.052;2023-02-07T13:28:22;99786.00;;;5.40
19040;BMP180;9652;49.014;12.052;2023-02-07T13:30:52;99774.00;;;5.60
19040;BMP180;9652;49.014;12.052;2023-02-07T13:33:32;99794.00;;;5.60
19040;BMP180;9652;49.014;12.052;2023-02-07T13:36:15;99799.00;;;5.60
19040;BMP180;9652;49.014;12.052;2023-02-07T13:39:05;99777.00;;;5.60
19040;BMP180;9652;49.014;12.052;2023-02-07T13:41:44;99785.00;;;5.50
19040;BMP180;9652;49.014;12.052;2023-02-07T13:44:24;99776.00;;;5.50
19040;BMP180;9652;49.014;12.052;2023-02-07T13:50:31;99781.00;;;5.30
19040;BMP180;9652;49.014;12.052;2023-02-07T13:53:21;99768.00;;;5.50
19040;BMP180;9652;49.014;12.052;2023-02-07T13:55:53;99785.00;;;5.60
19040;BMP180;9652;49.014;12.052;2023-02-07T13:58:51;99784.00;;;5.50
19040;BMP180;9652;49.014;12.052;2023-02-07T14:01:47;99764.00;;;5.50
19040;BMP180;9652;49.014;12.052;2023-02-07T14:04:17;99783.00;;;5.50
19040;BMP180;9652;49.014;12.052;2023-02-07T14:07:00;99785.00;;;5.50
19040;BMP180;9652;49.014;12.052;2023-02-07T14:09:34;99787.00;;;5.50
19040;BMP180;9652;49.014;12.052;2023-02-07T14:12:04;99781.00;;;5.50
19040;BMP180;9652;49.014;12.052;2023-02-07T14:14:38;99775.00;;;5.50
19040;BMP180;9652;49.014;12.052;2023-02-07T14:17:09;99771.00;;;5.50
19040;BMP180;9652;49.014;12.052;2023-02-07T14:19:50;99774.00;;;5.50
19040;BMP180;9652;49.014;12.052;2023-02-07T14:22:23;99780.00;;;5.50
19040;BMP180;9652;49.014;12.052;2023-02-07T14:25:18;99784.00;;;5.50
19040;BMP180;9652;49.014;12.052;2023-02-07T14:28:28;99769.00;;;5.50
19040;BMP180;9652;49.014;12.052;2023-02-07T14:31:09;99771.00;;;5.50
19040;BMP180;9652;49.014;12.052;2023-02-07T14:33:39;99786.00;;;5.50
19040;BMP180;9652;49.014;12.052;2023-02-07T14:36:27;99788.00;;;5.50
19040;BMP180;9652;49.014;12.052;2023-02-07T14:39:22;99777.00;;;5.50
19040;BMP180;9652;49.014;12.052;2023-02-07T14:41:53;99784.00;;;5.50
19040;BMP180;9652;49.014;12.052;2023-02-07T14:44:25;99773.00;;;5.50
19040;BMP180;9652;49.014;12.052;2023-02-07T14:46:55;99785.00;;;5.50
19040;BMP180;9652;49.014;12.052;2023-02-07T14:49:30;99781.00;;;5.50
19040;BMP180;9652;49.014;12.052;2023-02-07T14:52:01;99776.00;;;5.50